Time;durP1;ratioP1;P1;durP2;ratioP2;P2;SDS_P1;SDS_P2;PMS_P1;PMS_P2;Temp;Humidity;BMP_temperature;BMP_pressure;BME280_temperature;BME280_humidity;BME280_pressure;Samples;Min_cycle;Max_cycle;Signal;HPM_P1;HPM_P2
2023/07/05 00:00:31;;;;;;;;;;;25.90;57.30;;;;;;5052693;28;20019;-59
2023/07/05 00:02:59;;;;;;;;;;;26.00;57.40;;;;;;5052943;28;19967;-59
2023/07/05 00:05:26;;;;;;;;;;;25.90;57.40;;;;;;5052154;28;19928;-59
2023/07/05 00:07:53;;;;;;;;;;;25.90;57.40;;;;;;5052760;28;20438;-59
2023/07/05 00:10:20;;;;;;;;;;;25.90;57.40;;;;;;5052010;28;19924;-59
2023/07/05 00:12:47;;;;;;;;;;;25.90;57.40;;;;;;5052077;28;19920;-59
2023/07/05 00:15:14;;;;;;;;;;;25.90;57.40;;;;;;5052760;28;19972;-59
2023/07/05 00:17:41;;;;;;;;;;;25.90;57.40;;;;;;5052997;28;20365;-58
2023/07/05 00:20:11;;;;;;;;;;;25.90;57.40;;;;;;5052832;28;19925;-59
2023/07/05 00:22:38;;;;;;;;;;;25.90;57.40;;;;;;5051785;28;19967;-59
2023/07/05 00:25:05;;;;;;;;;;;25.90;57.40;;;;;;5052667;28;19967;-59
2023/07/05 00:27:32;;;;;;;;;;;25.90;57.40;;;;;;5052140;28;19968;-59
2023/07/05 00:29:59;;;;;;;;;;;25.90;57.40;;;;;;5033867;28;19937;-59
2023/07/05 00:32:26;;;;;;;;;;;25.90;57.40;;;;;;5051833;28;19971;-59
2023/07/05 00:34:54;;;;;;;;;;;25.90;57.40;;;;;;5052105;28;19925;-59
2023/07/05 00:37:20;;;;;;;;;;;25.90;57.40;;;;;;5053224;28;20335;-59
2023/07/05 00:39:47;;;;;;;;;;;25.90;57.50;;;;;;5052637;28;19943;-59
2023/07/05 00:42:14;;;;;;;;;;;25.90;57.50;;;;;;5052445;28;20400;-59
2023/07/05 00:44:41;;;;;;;;;;;25.80;57.40;;;;;;5051683;28;20286;-59
2023/07/05 00:47:26;;;;;;;;;;;25.80;57.40;;;;;;5052338;28;19921;-59
2023/07/05 00:49:57;;;;;;;;;;;25.80;57.40;;;;;;5051535;28;19935;-59
2023/07/05 00:52:24;;;;;;;;;;;25.80;57.40;;;;;;5052238;28;19924;-59
2023/07/05 00:54:52;;;;;;;;;;;25.80;57.40;;;;;;5051883;28;19924;-59
2023/07/05 00:57:24;;;;;;;;;;;25.80;57.40;;;;;;5051736;28;19924;-59
2023/07/05 00:59:54;;;;;;;;;;;25.80;57.30;;;;;;5052192;28;19947;-59
2023/07/05 01:02:21;;;;;;;;;;;25.90;57.40;;;;;;5052823;28;19960;-59
2023/07/05 01:04:48;;;;;;;;;;;25.90;57.50;;;;;;5052579;28;19970;-59
2023/07/05 01:07:16;;;;;;;;;;;25.80;57.30;;;;;;5052535;28;20012;-59
2023/07/05 01:09:45;;;;;;;;;;;25.80;57.30;;;;;;5051871;28;19921;-58
2023/07/05 01:12:19;;;;;;;;;;;25.90;57.40;;;;;;5052729;28;19920;-59
2023/07/05 01:14:52;;;;;;;;;;;25.90;57.30;;;;;;5055891;28;19925;-58
2023/07/05 01:17:39;;;;;;;;;;;25.90;57.30;;;;;;5055614;28;20399;-59
2023/07/05 01:20:15;;;;;;;;;;;25.80;57.30;;;;;;5055832;28;19927;-59
2023/07/05 01:22:56;;;;;;;;;;;25.80;57.30;;;;;;5055761;28;20011;-59
2023/07/05 01:25:43;;;;;;;;;;;25.80;57.30;;;;;;5055695;28;19921;-59
2023/07/05 01:28:27;;;;;;;;;;;25.80;57.30;;;;;;5054117;28;20023;-59
2023/07/05 01:31:14;;;;;;;;;;;25.80;57.30;;;;;;5055382;28;20328;-59
2023/07/05 01:33:54;;;;;;;;;;;25.90;57.30;;;;;;5054501;28;20395;-59
2023/07/05 01:36:21;;;;;;;;;;;25.80;57.30;;;;;;5055599;28;20027;-59
2023/07/05 01:38:49;;;;;;;;;;;25.80;57.30;;;;;;5055963;28;20288;-59
2023/07/05 01:41:16;;;;;;;;;;;25.80;57.30;;;;;;5055612;28;19921;-59
2023/07/05 01:43:45;;;;;;;;;;;25.80;57.30;;;;;;5055273;28;19921;-59
2023/07/05 01:46:23;;;;;;;;;;;25.80;57.30;;;;;;5054286;28;19920;-59
2023/07/05 01:49:07;;;;;;;;;;;25.80;57.30;;;;;;5055874;28;19978;-59
2023/07/05 01:51:54;;;;;;;;;;;25.80;57.40;;;;;;5055071;28;19924;-59
2023/07/05 01:54:30;;;;;;;;;;;25.80;57.30;;;;;;5055853;28;19975;-58
2023/07/05 01:57:00;;;;;;;;;;;25.80;57.40;;;;;;5055682;28;20276;-59
2023/07/05 01:59:31;;;;;;;;;;;25.70;57.30;;;;;;5055600;28;19920;-59
2023/07/05 02:01:59;;;;;;;;;;;25.70;57.30;;;;;;5055447;28;19924;-59
2023/07/05 02:04:26;;;;;;;;;;;25.70;57.30;;;;;;5055330;28;19921;-59
2023/07/05 02:06:53;;;;;;;;;;;25.70;57.30;;;;;;5055086;28;19952;-59
2023/07/05 02:09:20;;;;;;;;;;;25.70;57.30;;;;;;5054794;28;19975;-59
2023/07/05 02:11:48;;;;;;;;;;;25.70;57.30;;;;;;5054589;28;20011;-59
2023/07/05 02:14:15;;;;;;;;;;;25.70;57.30;;;;;;5054803;28;20024;-59
2023/07/05 02:16:42;;;;;;;;;;;25.70;57.30;;;;;;5054350;28;19990;-59
2023/07/05 02:19:09;;;;;;;;;;;25.70;57.30;;;;;;5055009;28;20011;-59
2023/07/05 02:21:36;;;;;;;;;;;25.70;57.30;;;;;;5054173;28;19921;-58
2023/07/05 02:24:04;;;;;;;;;;;25.70;57.30;;;;;;5053933;28;19966;-59
2023/07/05 02:26:33;;;;;;;;;;;25.70;57.30;;;;;;5052997;28;19924;-59
2023/07/05 02:29:00;;;;;;;;;;;25.70;57.30;;;;;;5054391;28;20023;-59
2023/07/05 02:31:29;;;;;;;;;;;25.70;57.30;;;;;;5054513;28;19921;-59
2023/07/05 02:33:56;;;;;;;;;;;25.70;57.30;;;;;;5053934;28;19921;-59
2023/07/05 02:36:23;;;;;;;;;;;25.70;57.30;;;;;;5053274;28;20332;-59
2023/07/05 02:38:51;;;;;;;;;;;25.70;57.30;;;;;;5054252;28;19979;-59
2023/07/05 02:41:18;;;;;;;;;;;25.70;57.30;;;;;;5053570;28;20007;-59
2023/07/05 02:43:45;;;;;;;;;;;25.70;57.30;;;;;;5054374;28;19960;-59
2023/07/05 02:46:12;;;;;;;;;;;25.70;57.30;;;;;;5054022;28;19970;-59
2023/07/05 02:48:40;;;;;;;;;;;25.70;57.30;;;;;;5054095;28;19928;-59
2023/07/05 02:51:07;;;;;;;;;;;25.70;57.30;;;;;;5053767;28;20439;-59
2023/07/05 02:53:33;;;;;;;;;;;25.70;57.80;;;;;;5054054;28;19987;-59
2023/07/05 02:56:00;;;;;;;;;;;25.70;57.30;;;;;;5054037;28;19920;-59
2023/07/05 02:58:27;;;;;;;;;;;25.70;57.30;;;;;;5053917;28;19924;-59
2023/07/05 03:00:55;;;;;;;;;;;25.70;57.30;;;;;;5052919;28;19967;-59
2023/07/05 03:03:22;;;;;;;;;;;25.70;57.30;;;;;;5053337;28;20353;-59
2023/07/05 03:05:56;;;;;;;;;;;25.70;57.30;;;;;;5053110;28;20385;-59
2023/07/05 03:08:25;;;;;;;;;;;25.70;57.20;;;;;;5053824;28;19920;-59
2023/07/05 03:10:53;;;;;;;;;;;25.70;57.30;;;;;;5053087;28;19921;-59
2023/07/05 03:13:20;;;;;;;;;;;25.70;57.20;;;;;;5053681;28;19925;-59
2023/07/05 03:15:47;;;;;;;;;;;25.70;57.20;;;;;;5052912;28;19932;-59
2023/07/05 03:18:14;;;;;;;;;;;25.70;57.20;;;;;;5053132;28;19928;-59
2023/07/05 03:20:44;;;;;;;;;;;25.70;57.10;;;;;;5053222;28;19975;-59
2023/07/05 03:23:11;;;;;;;;;;;25.70;57.10;;;;;;5053327;28;19921;-59
2023/07/05 03:25:38;;;;;;;;;;;25.70;57.10;;;;;;5052000;28;19960;-59
2023/07/05 03:28:05;;;;;;;;;;;25.70;57.00;;;;;;5052993;28;19920;-59
2023/07/05 03:30:34;;;;;;;;;;;25.70;57.00;;;;;;5053170;28;19979;-59
2023/07/05 03:33:01;;;;;;;;;;;25.80;57.00;;;;;;5052865;28;19964;-59
2023/07/05 03:35:29;;;;;;;;;;;25.80;57.00;;;;;;5072592;28;19920;-59
2023/07/05 03:37:56;;;;;;;;;;;25.80;56.90;;;;;;5073424;28;19921;-58
2023/07/05 03:40:23;;;;;;;;;;;25.80;56.90;;;;;;5072650;28;19921;-59
2023/07/05 03:42:50;;;;;;;;;;;25.80;56.80;;;;;;5072407;28;20368;-59
2023/07/05 03:45:17;;;;;;;;;;;25.80;56.70;;;;;;5073017;28;19924;-59
2023/07/05 03:47:44;;;;;;;;;;;25.80;56.70;;;;;;5072482;28;19974;-59
2023/07/05 03:50:11;;;;;;;;;;;25.80;56.70;;;;;;5062939;28;20283;-59
2023/07/05 03:52:38;;;;;;;;;;;25.80;56.70;;;;;;5053080;28;20319;-59
2023/07/05 03:55:05;;;;;;;;;;;25.90;56.80;;;;;;5052421;28;20018;-59
2023/07/05 03:57:32;;;;;;;;;;;25.90;56.80;;;;;;5053156;28;19964;-59
2023/07/05 04:00:00;;;;;;;;;;;25.90;56.70;;;;;;5052455;28;19971;-59
2023/07/05 04:02:27;;;;;;;;;;;25.90;56.60;;;;;;5056355;28;20258;-59
2023/07/05 04:04:54;;;;;;;;;;;25.90;56.60;;;;;;5054171;28;19920;-59
2023/07/05 04:07:21;;;;;;;;;;;25.90;56.50;;;;;;5052821;28;19929;-59
2023/07/05 04:09:48;;;;;;;;;;;25.90;56.50;;;;;;5052459;28;19982;-59
2023/07/05 04:12:15;;;;;;;;;;;25.90;56.40;;;;;;5049681;28;19921;-59
2023/07/05 04:14:44;;;;;;;;;;;25.90;56.40;;;;;;5051576;28;19921;-59
2023/07/05 04:17:11;;;;;;;;;;;26.00;56.40;;;;;;5052809;28;19924;-59
2023/07/05 04:19:38;;;;;;;;;;;26.00;56.40;;;;;;5052381;28;19920;-59
2023/07/05 04:22:05;;;;;;;;;;;26.00;56.30;;;;;;5052018;28;19920;-59
2023/07/05 04:24:32;;;;;;;;;;;26.00;56.30;;;;;;5052868;28;20296;-59
2023/07/05 04:26:59;;;;;;;;;;;26.00;56.20;;;;;;5052280;28;19990;-59
2023/07/05 04:29:26;;;;;;;;;;;26.00;56.20;;;;;;5052029;28;20015;-59
2023/07/05 04:31:53;;;;;;;;;;;26.10;56.20;;;;;;5052374;28;19921;-59
2023/07/05 04:34:20;;;;;;;;;;;26.10;56.10;;;;;;5084295;28;19927;-59
2023/07/05 04:36:48;;;;;;;;;;;26.10;56.10;;;;;;5051792;28;19921;-59
2023/07/05 04:39:15;;;;;;;;;;;26.00;56.10;;;;;;5051173;28;19921;-59
2023/07/05 04:41:42;;;;;;;;;;;25.90;56.20;;;;;;5051219;28;19982;-59
2023/07/05 04:44:10;;;;;;;;;;;25.80;56.40;;;;;;5051695;28;19928;-59
2023/07/05 04:46:37;;;;;;;;;;;25.60;56.30;;;;;;5051635;28;19947;-60
2023/07/05 04:49:05;;;;;;;;;;;25.40;55.30;;;;;;5054974;28;19952;-59
2023/07/05 04:51:32;;;;;;;;;;;25.10;54.40;;;;;;5055959;28;19975;-59
2023/07/05 04:54:00;;;;;;;;;;;24.70;53.60;;;;;;5055634;28;20017;-59
2023/07/05 04:56:27;;;;;;;;;;;24.40;53.30;;;;;;5054076;28;19920;-59
2023/07/05 04:58:55;;;;;;;;;;;24.10;52.80;;;;;;5054517;28;19964;-59
2023/07/05 05:01:23;;;;;;;;;;;23.70;52.80;;;;;;5052971;28;20369;-59
2023/07/05 05:03:50;;;;;;;;;;;23.30;52.40;;;;;;5053429;28;20490;-59
2023/07/05 05:06:17;;;;;;;;;;;23.00;52.50;;;;;;5054171;28;19967;-59
2023/07/05 05:08:44;;;;;;;;;;;22.60;52.50;;;;;;5052577;28;19928;-59
2023/07/05 05:11:11;;;;;;;;;;;22.30;52.70;;;;;;5053340;28;19963;-58
2023/07/05 05:13:38;;;;;;;;;;;22.00;53.70;;;;;;5048925;28;19963;-61
2023/07/05 05:16:05;;;;;;;;;;;21.70;53.80;;;;;;5052658;28;19921;-59
2023/07/05 05:18:34;;;;;;;;;;;21.50;53.70;;;;;;5049547;28;19925;-60
2023/07/05 05:21:01;;;;;;;;;;;21.30;54.40;;;;;;5053709;28;19925;-62
2023/07/05 05:23:29;;;;;;;;;;;21.10;55.10;;;;;;5045944;28;19924;-62
2023/07/05 05:25:56;;;;;;;;;;;21.00;55.20;;;;;;5048250;28;21692;-63
2023/07/05 05:28:24;;;;;;;;;;;20.90;55.70;;;;;;5048408;28;19927;-62
2023/07/05 05:30:51;;;;;;;;;;;20.70;55.90;;;;;;5049956;28;19931;-61
2023/07/05 05:33:18;;;;;;;;;;;20.60;55.70;;;;;;5051582;28;19925;-60
2023/07/05 05:35:46;;;;;;;;;;;20.60;56.00;;;;;;5049690;28;20570;-60
2023/07/05 05:38:14;;;;;;;;;;;20.50;56.30;;;;;;5046109;28;20368;-61
2023/07/05 05:40:41;;;;;;;;;;;20.50;56.10;;;;;;5049751;28;19925;-61
2023/07/05 05:43:08;;;;;;;;;;;20.50;55.70;;;;;;5047652;28;20012;-61
2023/07/05 05:45:36;;;;;;;;;;;20.40;56.20;;;;;;5049151;28;19924;-60
2023/07/05 05:48:04;;;;;;;;;;;20.40;56.60;;;;;;5042663;28;19921;-60
2023/07/05 05:50:31;;;;;;;;;;;20.30;56.70;;;;;;5047024;28;19931;-60
2023/07/05 05:52:58;;;;;;;;;;;20.30;57.40;;;;;;5044200;28;19972;-60
2023/07/05 05:55:25;;;;;;;;;;;20.30;57.30;;;;;;5042559;28;20377;-60
2023/07/05 05:57:52;;;;;;;;;;;20.30;57.80;;;;;;5049574;28;19947;-61
2023/07/05 06:00:19;;;;;;;;;;;20.30;58.50;;;;;;5049564;28;19968;-60
2023/07/05 06:02:47;;;;;;;;;;;20.20;58.50;;;;;;5050923;28;19932;-60
2023/07/05 06:05:15;;;;;;;;;;;20.20;59.00;;;;;;5048141;28;19928;-60
2023/07/05 06:07:42;;;;;;;;;;;20.20;59.10;;;;;;5045127;28;19931;-59
2023/07/05 06:10:10;;;;;;;;;;;20.10;59.60;;;;;;5046541;28;19968;-59
2023/07/05 06:12:41;;;;;;;;;;;20.00;58.80;;;;;;5047565;28;19924;-59
2023/07/05 06:15:10;;;;;;;;;;;20.00;59.10;;;;;;5047950;28;19920;-57
2023/07/05 06:17:37;;;;;;;;;;;20.00;58.90;;;;;;5046012;28;19972;-60
2023/07/05 06:20:08;;;;;;;;;;;20.00;58.50;;;;;;5047319;28;20003;-60
2023/07/05 06:22:38;;;;;;;;;;;20.00;58.50;;;;;;5045968;28;20416;-60
2023/07/05 06:25:06;;;;;;;;;;;20.00;58.50;;;;;;5044345;28;20420;-59
2023/07/05 06:27:33;;;;;;;;;;;20.00;58.20;;;;;;5044411;28;20614;-60
2023/07/05 06:30:01;;;;;;;;;;;20.00;59.30;;;;;;5046481;28;20396;-58
2023/07/05 06:32:28;;;;;;;;;;;20.00;59.20;;;;;;5060913;28;19975;-60
2023/07/05 06:34:55;;;;;;;;;;;20.00;59.50;;;;;;5047801;28;19921;-60
2023/07/05 06:37:23;;;;;;;;;;;20.00;59.60;;;;;;5045518;28;19928;-60
2023/07/05 06:39:50;;;;;;;;;;;20.00;59.70;;;;;;5045695;28;19928;-60
2023/07/05 06:42:17;;;;;;;;;;;20.00;60.00;;;;;;5039790;28;19966;-59
2023/07/05 06:44:44;;;;;;;;;;;20.00;60.20;;;;;;5046775;28;19924;-60
2023/07/05 06:47:11;;;;;;;;;;;20.00;60.40;;;;;;5044435;28;19968;-59
2023/07/05 06:49:39;;;;;;;;;;;20.00;59.90;;;;;;5041802;28;20008;-60
2023/07/05 06:52:09;;;;;;;;;;;20.00;61.20;;;;;;5046705;28;20373;-60
2023/07/05 06:54:37;;;;;;;;;;;20.00;61.00;;;;;;5044544;28;19927;-60
2023/07/05 06:57:04;;;;;;;;;;;20.00;61.10;;;;;;5046169;28;19929;-61
2023/07/05 06:59:31;;;;;;;;;;;20.10;61.40;;;;;;5045562;28;19924;-60
2023/07/05 07:01:59;;;;;;;;;;;20.10;61.50;;;;;;5046195;28;19925;-62
2023/07/05 07:04:26;;;;;;;;;;;20.10;61.30;;;;;;5046904;28;19929;-63
2023/07/05 07:06:53;;;;;;;;;;;20.10;61.90;;;;;;5043433;28;20011;-62
2023/07/05 07:09:20;;;;;;;;;;;20.20;61.80;;;;;;5048360;28;20554;-62
2023/07/05 07:11:47;;;;;;;;;;;20.20;62.70;;;;;;5044311;28;19978;-62
2023/07/05 07:14:14;;;;;;;;;;;20.30;62.00;;;;;;5042019;28;19936;-61
2023/07/05 07:16:41;;;;;;;;;;;20.30;62.30;;;;;;5043743;28;20019;-60
2023/07/05 07:19:09;;;;;;;;;;;20.40;62.50;;;;;;5045139;28;20289;-62
2023/07/05 07:21:37;;;;;;;;;;;20.40;62.70;;;;;;5049575;28;19999;-61
2023/07/05 07:24:04;;;;;;;;;;;20.50;62.60;;;;;;5045464;28;19935;-61
2023/07/05 07:26:32;;;;;;;;;;;20.50;62.60;;;;;;5043968;28;20471;-62
2023/07/05 07:28:59;;;;;;;;;;;20.50;61.90;;;;;;5073726;28;19925;-61
2023/07/05 07:31:28;;;;;;;;;;;20.60;62.30;;;;;;5040993;28;20058;-61
2023/07/05 07:33:56;;;;;;;;;;;20.60;62.80;;;;;;5040572;28;19941;-62
2023/07/05 07:36:24;;;;;;;;;;;20.70;62.70;;;;;;5041924;28;19960;-61
2023/07/05 07:38:52;;;;;;;;;;;20.70;62.50;;;;;;5042578;28;19928;-61
2023/07/05 07:41:21;;;;;;;;;;;20.80;62.50;;;;;;5044446;28;20423;-61
2023/07/05 07:43:52;;;;;;;;;;;20.80;62.60;;;;;;5039802;28;19925;-61
2023/07/05 07:46:21;;;;;;;;;;;20.90;62.80;;;;;;5047842;28;20320;-62
2023/07/05 07:48:49;;;;;;;;;;;20.90;62.30;;;;;;5044374;28;21170;-61
2023/07/05 07:51:16;;;;;;;;;;;21.00;62.30;;;;;;5051653;28;20591;-62
2023/07/05 07:54:04;;;;;;;;;;;20.90;61.70;;;;;;5048759;28;19920;-61
2023/07/05 07:56:31;;;;;;;;;;;21.00;61.50;;;;;;5056643;28;20536;-62
2023/07/05 07:59:00;;;;;;;;;;;21.00;61.30;;;;;;5049436;28;20023;-62
2023/07/05 08:01:28;;;;;;;;;;;21.10;62.10;;;;;;5071608;28;19928;-62
2023/07/05 08:03:56;;;;;;;;;;;21.10;61.30;;;;;;5045207;28;19959;-63
2023/07/05 08:06:29;;;;;;;;;;;21.10;61.30;;;;;;5044198;28;19928;-61
2023/07/05 08:08:56;;;;;;;;;;;21.20;61.30;;;;;;5043674;28;19929;-61
2023/07/05 08:11:23;;;;;;;;;;;21.10;61.10;;;;;;5044366;28;19928;-61
2023/07/05 08:13:50;;;;;;;;;;;21.20;60.70;;;;;;5040916;28;19928;-61
2023/07/05 08:16:18;;;;;;;;;;;21.20;60.90;;;;;;5049151;28;19928;-62
2023/07/05 08:18:45;;;;;;;;;;;21.20;61.10;;;;;;5046199;28;19924;-61
2023/07/05 08:21:14;;;;;;;;;;;21.30;61.10;;;;;;5047919;28;19928;-62
2023/07/05 08:23:42;;;;;;;;;;;21.30;60.90;;;;;;5053452;28;20289;-61
2023/07/05 08:26:09;;;;;;;;;;;21.30;61.00;;;;;;5049751;28;19967;-61
2023/07/05 08:28:37;;;;;;;;;;;21.40;61.10;;;;;;5047245;28;19974;-61
2023/07/05 08:31:04;;;;;;;;;;;21.30;61.20;;;;;;5045510;28;20447;-61
2023/07/05 08:33:32;;;;;;;;;;;21.40;61.20;;;;;;5048119;28;19921;-61
2023/07/05 08:36:19;;;;;;;;;;;21.30;60.20;;;;;;5050756;28;19928;-61
2023/07/05 08:38:50;;;;;;;;;;;21.40;60.60;;;;;;5051252;28;20285;-62
2023/07/05 08:41:27;;;;;;;;;;;21.50;63.50;;;;;;5049598;28;20023;-62
2023/07/05 08:44:13;;;;;;;;;;;21.60;60.20;;;;;;5050153;28;19925;-61
2023/07/05 08:46:41;;;;;;;;;;;21.70;59.90;;;;;;5051176;28;20369;-61
2023/07/05 08:49:12;;;;;;;;;;;21.60;59.30;;;;;;5047866;28;19952;-62
2023/07/05 08:51:42;;;;;;;;;;;21.60;60.20;;;;;;5046908;28;19990;-62
2023/07/05 08:54:13;;;;;;;;;;;21.50;60.00;;;;;;5045946;28;20026;-62
2023/07/05 08:56:43;;;;;;;;;;;21.50;59.70;;;;;;5048553;28;19933;-62
2023/07/05 08:59:32;;;;;;;;;;;21.40;59.70;;;;;;5048578;28;20328;-62
2023/07/05 09:02:00;;;;;;;;;;;21.40;59.90;;;;;;5051090;28;20429;-62
2023/07/05 09:04:30;;;;;;;;;;;21.30;59.50;;;;;;5048491;28;19924;-62
2023/07/05 09:07:04;;;;;;;;;;;21.30;59.70;;;;;;5048280;28;20389;-62
2023/07/05 09:09:46;;;;;;;;;;;21.30;60.10;;;;;;5049504;28;20023;-62
2023/07/05 09:12:17;;;;;;;;;;;21.30;60.10;;;;;;5053409;28;19924;-62
2023/07/05 09:15:01;;;;;;;;;;;21.30;60.00;;;;;;5048428;28;20094;-61
2023/07/05 09:17:47;;;;;;;;;;;21.20;59.90;;;;;;5045059;28;19924;-61
2023/07/05 09:20:36;;;;;;;;;;;21.30;59.70;;;;;;5050416;28;20011;-61
2023/07/05 09:23:05;;;;;;;;;;;21.30;60.10;;;;;;5046809;28;20447;-61
2023/07/05 09:25:33;;;;;;;;;;;21.30;60.00;;;;;;5045267;28;19921;-61
2023/07/05 09:28:24;;;;;;;;;;;21.20;60.30;;;;;;5049841;28;19936;-61
2023/07/05 09:30:52;;;;;;;;;;;21.30;60.10;;;;;;5048390;28;20058;-61
2023/07/05 09:33:23;;;;;;;;;;;21.30;60.20;;;;;;5047285;28;19932;-61
2023/07/05 09:35:52;;;;;;;;;;;21.30;60.20;;;;;;5047858;28;19965;-62
2023/07/05 09:38:22;;;;;;;;;;;21.30;60.60;;;;;;5047309;28;19932;-62
2023/07/05 09:40:52;;;;;;;;;;;21.30;59.80;;;;;;5045888;28;19936;-62
2023/07/05 09:43:25;;;;;;;;;;;21.30;60.00;;;;;;5047357;28;19975;-62
2023/07/05 09:45:54;;;;;;;;;;;21.40;60.20;;;;;;5044702;28;19928;-62
2023/07/05 09:48:22;;;;;;;;;;;21.40;60.20;;;;;;5049493;28;19929;-62
2023/07/05 09:50:50;;;;;;;;;;;21.50;60.00;;;;;;5051215;28;19950;-61
2023/07/05 09:53:37;;;;;;;;;;;21.50;59.70;;;;;;5045229;28;20384;-61
2023/07/05 09:56:09;;;;;;;;;;;21.50;59.90;;;;;;5046785;28;19967;-62
2023/07/05 09:58:36;;;;;;;;;;;21.50;59.70;;;;;;5042797;28;20327;-62
2023/07/05 10:01:08;;;;;;;;;;;21.60;59.80;;;;;;5044869;28;19964;-61
2023/07/05 10:03:36;;;;;;;;;;;21.60;59.40;;;;;;5048224;28;19929;-62
2023/07/05 10:06:07;;;;;;;;;;;21.60;59.30;;;;;;5044289;28;19920;-61
2023/07/05 10:08:44;;;;;;;;;;;21.70;59.00;;;;;;5049142;28;19949;-61
2023/07/05 10:11:19;;;;;;;;;;;21.70;59.10;;;;;;5045126;28;19940;-61
2023/07/05 10:13:46;;;;;;;;;;;21.80;59.10;;;;;;5045977;28;19929;-61
2023/07/05 10:16:14;;;;;;;;;;;21.80;58.90;;;;;;5047977;28;19920;-62
2023/07/05 10:18:41;;;;;;;;;;;21.80;58.70;;;;;;5049294;28;20379;-62
2023/07/05 10:21:19;;;;;;;;;;;21.80;58.90;;;;;;5048469;28;19994;-62
2023/07/05 10:23:48;;;;;;;;;;;21.80;58.80;;;;;;5045778;28;19925;-61
2023/07/05 10:26:19;;;;;;;;;;;21.70;58.50;;;;;;5045080;28;19939;-61
2023/07/05 10:28:46;;;;;;;;;;;21.70;58.70;;;;;;5047028;28;19920;-61
2023/07/05 10:31:24;;;;;;;;;;;21.70;58.60;;;;;;5045728;28;19975;-61
2023/07/05 10:34:02;;;;;;;;;;;21.60;58.40;;;;;;5048841;28;19933;-61
2023/07/05 10:36:29;;;;;;;;;;;21.60;57.80;;;;;;5048862;28;19966;-61
2023/07/05 10:38:57;;;;;;;;;;;21.50;58.10;;;;;;5050608;28;19924;-61
2023/07/05 10:41:31;;;;;;;;;;;21.50;57.70;;;;;;5048027;28;19920;-61
2023/07/05 10:44:04;;;;;;;;;;;21.50;57.80;;;;;;5045760;28;19921;-62
2023/07/05 10:46:34;;;;;;;;;;;21.40;58.00;;;;;;5046552;28;20288;-61
2023/07/05 10:49:01;;;;;;;;;;;21.30;57.60;;;;;;5033873;28;19925;-61
2023/07/05 10:51:31;;;;;;;;;;;21.30;58.10;;;;;;5049021;28;19924;-60
2023/07/05 10:54:18;;;;;;;;;;;21.30;58.00;;;;;;5050108;28;19963;-60
2023/07/05 10:56:45;;;;;;;;;;;21.30;57.80;;;;;;5045136;28;19920;-60
2023/07/05 10:59:32;;;;;;;;;;;21.30;58.20;;;;;;5044991;28;19959;-60
2023/07/05 11:02:20;;;;;;;;;;;21.30;58.10;;;;;;5048742;28;19929;-61
2023/07/05 11:04:49;;;;;;;;;;;21.20;58.00;;;;;;5046514;28;19955;-60
2023/07/05 11:07:24;;;;;;;;;;;21.20;57.90;;;;;;5077178;28;19925;-59
2023/07/05 11:09:51;;;;;;;;;;;21.20;58.00;;;;;;5069282;28;19951;-62
2023/07/05 11:12:20;;;;;;;;;;;21.20;57.60;;;;;;5075532;28;20350;-62
2023/07/05 11:14:48;;;;;;;;;;;21.20;57.60;;;;;;5070656;28;19989;-62
2023/07/05 11:17:27;;;;;;;;;;;21.10;57.80;;;;;;5074549;28;19924;-62
2023/07/05 11:19:54;;;;;;;;;;;21.10;57.90;;;;;;5079468;28;20284;-63
2023/07/05 11:22:39;;;;;;;;;;;21.20;57.90;;;;;;5069046;28;19924;-63
2023/07/05 11:25:17;;;;;;;;;;;21.20;57.80;;;;;;5071376;28;19933;-63
2023/07/05 11:27:49;;;;;;;;;;;21.10;57.90;;;;;;5072166;28;20015;-63
2023/07/05 11:30:36;;;;;;;;;;;21.20;57.60;;;;;;5070693;28;19932;-63
2023/07/05 11:33:16;;;;;;;;;;;21.20;58.20;;;;;;5068441;28;20380;-63
2023/07/05 11:35:48;;;;;;;;;;;21.20;58.00;;;;;;5071281;28;19924;-63
2023/07/05 11:38:36;;;;;;;;;;;21.20;58.00;;;;;;5066553;28;19933;-63
2023/07/05 11:41:06;;;;;;;;;;;21.20;58.30;;;;;;5072899;28;19924;-63
2023/07/05 11:43:36;;;;;;;;;;;21.20;57.70;;;;;;5073081;28;20015;-63
2023/07/05 11:46:04;;;;;;;;;;;21.30;58.10;;;;;;5070727;28;19932;-63
2023/07/05 11:48:42;;;;;;;;;;;21.30;58.00;;;;;;5078982;28;19929;-63
2023/07/05 11:51:12;;;;;;;;;;;21.30;57.70;;;;;;5072174;28;19932;-63
2023/07/05 11:53:59;;;;;;;;;;;21.30;58.10;;;;;;5075055;28;19925;-63
2023/07/05 11:56:28;;;;;;;;;;;21.30;58.00;;;;;;5073063;28;19932;-62
2023/07/05 11:58:56;;;;;;;;;;;21.30;58.30;;;;;;5069720;28;19978;-63
2023/07/05 12:01:27;;;;;;;;;;;21.30;58.50;;;;;;5069025;28;19932;-63
2023/07/05 12:03:58;;;;;;;;;;;21.30;58.50;;;;;;5074037;28;19925;-63
2023/07/05 12:06:33;;;;;;;;;;;21.30;58.70;;;;;;5078885;28;19928;-62
2023/07/05 12:09:03;;;;;;;;;;;21.30;59.00;;;;;;5088578;28;20323;-62
2023/07/05 12:11:34;;;;;;;;;;;21.40;58.90;;;;;;5098876;28;19932;-62
2023/07/05 12:14:02;;;;;;;;;;;21.40;58.90;;;;;;5090986;28;19925;-62
2023/07/05 12:16:29;;;;;;;;;;;21.50;59.50;;;;;;5089869;28;19925;-62
2023/07/05 12:18:56;;;;;;;;;;;21.50;59.20;;;;;;5078689;28;19971;-62
2023/07/05 12:21:23;;;;;;;;;;;21.50;59.10;;;;;;5077778;28;19976;-61
2023/07/05 12:23:55;;;;;;;;;;;21.60;59.00;;;;;;5085003;28;19930;-62
2023/07/05 12:26:26;;;;;;;;;;;21.60;59.10;;;;;;5072768;28;19978;-61
2023/07/05 12:28:53;;;;;;;;;;;21.70;59.20;;;;;;5076070;28;19990;-62
2023/07/05 12:31:22;;;;;;;;;;;21.70;58.90;;;;;;5083409;28;20018;-62
2023/07/05 12:33:54;;;;;;;;;;;21.70;59.10;;;;;;5081641;28;19999;-62
2023/07/05 12:36:22;;;;;;;;;;;21.80;59.10;;;;;;5067981;28;20326;-62
2023/07/05 12:38:50;;;;;;;;;;;21.70;59.00;;;;;;5073499;28;20273;-62
2023/07/05 12:41:20;;;;;;;;;;;21.80;58.90;;;;;;5076212;28;20032;-62
2023/07/05 12:43:48;;;;;;;;;;;21.80;59.10;;;;;;5075390;28;19929;-61
2023/07/05 12:46:19;;;;;;;;;;;21.70;59.40;;;;;;5078239;28;19977;-59
2023/07/05 12:48:48;;;;;;;;;;;21.80;59.60;;;;;;5081702;28;19928;-63
2023/07/05 12:51:19;;;;;;;;;;;21.80;59.40;;;;;;5070583;28;19932;-62
2023/07/05 12:53:47;;;;;;;;;;;21.80;59.40;;;;;;5073373;28;19964;-62
2023/07/05 12:56:19;;;;;;;;;;;21.80;59.20;;;;;;5075349;28;20023;-63
2023/07/05 12:58:51;;;;;;;;;;;21.80;59.40;;;;;;5078699;28;19935;-63
2023/07/05 13:01:19;;;;;;;;;;;21.80;59.30;;;;;;5073832;28;19982;-62
2023/07/05 13:03:48;;;;;;;;;;;21.80;59.50;;;;;;5076921;28;19951;-63
2023/07/05 13:06:17;;;;;;;;;;;21.80;60.30;;;;;;5081540;28;19928;-62
2023/07/05 13:08:46;;;;;;;;;;;21.70;60.50;;;;;;5083002;28;19924;-61
2023/07/05 13:11:15;;;;;;;;;;;21.70;60.40;;;;;;5072838;28;19966;-63
2023/07/05 13:13:42;;;;;;;;;;;21.70;60.50;;;;;;5073335;28;19967;-62
2023/07/05 13:16:30;;;;;;;;;;;21.80;60.70;;;;;;5070125;28;19935;-62
2023/07/05 13:19:01;;;;;;;;;;;21.80;60.20;;;;;;5080475;28;20014;-62
2023/07/05 13:21:36;;;;;;;;;;;21.80;60.40;;;;;;5076755;28;19985;-59
2023/07/05 13:24:07;;;;;;;;;;;21.80;60.30;;;;;;5071816;28;20373;-60
2023/07/05 13:26:36;;;;;;;;;;;21.80;60.50;;;;;;5077143;28;20014;-60
2023/07/05 13:29:14;;;;;;;;;;;21.90;60.40;;;;;;5081593;28;19924;-59
2023/07/05 13:31:46;;;;;;;;;;;21.90;60.20;;;;;;5075976;28;20261;-60
2023/07/05 13:34:13;;;;;;;;;;;22.00;60.20;;;;;;5075507;28;19959;-60
2023/07/05 13:36:40;;;;;;;;;;;22.00;60.50;;;;;;5075227;28;19925;-60
2023/07/05 13:39:08;;;;;;;;;;;22.00;59.90;;;;;;5072809;28;20381;-61
2023/07/05 13:41:36;;;;;;;;;;;22.00;60.40;;;;;;5077408;28;19979;-59
2023/07/05 13:44:08;;;;;;;;;;;22.00;60.20;;;;;;5078612;28;19970;-60
2023/07/05 13:46:36;;;;;;;;;;;22.00;60.30;;;;;;5080056;28;19928;-59
2023/07/05 13:49:03;;;;;;;;;;;22.00;60.30;;;;;;5073476;28;19932;-61
2023/07/05 13:51:32;;;;;;;;;;;22.00;60.20;;;;;;5082639;28;19928;-60
2023/07/05 13:54:00;;;;;;;;;;;22.00;60.00;;;;;;5073891;28;19938;-59
2023/07/05 13:56:27;;;;;;;;;;;22.10;60.40;;;;;;5080743;28;20424;-59
2023/07/05 13:58:54;;;;;;;;;;;22.10;60.30;;;;;;5070354;28;20029;-60
2023/07/05 14:01:21;;;;;;;;;;;22.10;60.60;;;;;;5075403;28;19931;-58
2023/07/05 14:03:49;;;;;;;;;;;22.10;61.90;;;;;;5076742;28;20653;-60
2023/07/05 14:06:23;;;;;;;;;;;22.30;67.00;;;;;;5076262;28;20410;-59
2023/07/05 14:08:50;;;;;;;;;;;22.60;68.60;;;;;;5075595;28;19929;-60
2023/07/05 14:11:22;;;;;;;;;;;22.90;69.90;;;;;;5078622;28;19925;-59
2023/07/05 14:13:49;;;;;;;;;;;23.30;70.20;;;;;;5084895;28;20299;-58
2023/07/05 14:16:17;;;;;;;;;;;23.60;70.20;;;;;;5077218;28;20360;-61
2023/07/05 14:18:44;;;;;;;;;;;23.90;69.80;;;;;;5069912;28;20368;-60
2023/07/05 14:21:21;;;;;;;;;;;24.20;69.60;;;;;;5079447;28;19950;-58
2023/07/05 14:23:48;;;;;;;;;;;24.40;69.20;;;;;;5078596;28;19931;-60
2023/07/05 14:26:15;;;;;;;;;;;24.70;69.10;;;;;;5083182;28;19977;-60
2023/07/05 14:28:42;;;;;;;;;;;24.90;68.90;;;;;;5083035;28;20372;-62
2023/07/05 14:31:11;;;;;;;;;;;25.10;68.60;;;;;;5072296;28;20400;-59